createdAt,value
2024-02-18T00:03:10.493Z,100.00
2024-02-18T00:08:21.150Z,100.00
2024-02-18T00:13:31.708Z,100.00
2024-02-18T00:18:40.817Z,100.00
2024-02-18T00:23:46.748Z,100.00
2024-02-18T00:28:57.178Z,100.00
2024-02-18T00:34:07.042Z,100.00
2024-02-18T00:39:15.682Z,100.00
2024-02-18T00:44:29.711Z,100.00
2024-02-18T00:49:36.844Z,100.00
2024-02-18T00:54:43.753Z,100.00
2024-02-18T00:59:50.671Z,100.00
2024-02-18T01:05:09.800Z,100.00
2024-02-18T01:10:22.400Z,100.00
2024-02-18T01:15:31.320Z,100.00
2024-02-18T01:20:38.477Z,100.00
2024-02-18T01:25:43.090Z,100.00
2024-02-18T01:30:49.364Z,100.00
2024-02-18T01:35:57.718Z,100.00
2024-02-18T01:41:08.080Z,100.00
2024-02-18T01:46:14.937Z,100.00
2024-02-18T01:56:38.044Z,100.00
2024-02-18T02:01:54.685Z,100.00
2024-02-18T02:07:06.014Z,100.00
2024-02-18T02:12:12.124Z,100.00
2024-02-18T02:17:19.535Z,100.00
2024-02-18T02:22:39.224Z,100.00
2024-02-18T02:28:08.553Z,100.00
2024-02-18T02:33:19.333Z,100.00
2024-02-18T02:38:32.664Z,100.00
2024-02-18T02:43:49.792Z,100.00
2024-02-18T02:48:59.983Z,100.00
2024-02-18T02:54:11.169Z,100.00
2024-02-18T03:04:35.368Z,100.00
2024-02-18T03:09:42.472Z,100.00
2024-02-18T03:14:48.727Z,100.00
2024-02-18T03:30:31.192Z,100.00
2024-02-18T03:35:58.773Z,100.00
2024-02-18T03:41:06.605Z,100.00
2024-02-18T03:46:12.421Z,100.00
2024-02-18T03:51:24.194Z,100.00
2024-02-18T03:56:36.409Z,100.00
2024-02-18T04:01:46.245Z,100.00
2024-02-18T04:06:54.195Z,100.00
2024-02-18T04:12:00.104Z,100.00
2024-02-18T04:17:23.805Z,100.00
2024-02-18T04:22:32.486Z,100.00
2024-02-18T04:27:44.091Z,100.00
2024-02-18T04:32:51.128Z,100.00
2024-02-18T04:43:11.198Z,100.00
2024-02-18T04:48:18.826Z,100.00
2024-02-18T04:53:25.763Z,100.00
2024-02-18T04:58:38.498Z,100.00
2024-02-18T05:03:43.728Z,100.00
2024-02-18T05:08:52.241Z,100.00
2024-02-18T05:14:01.946Z,100.00
2024-02-18T05:24:27.095Z,100.00
2024-02-18T05:29:32.832Z,100.00
2024-02-18T05:34:39.762Z,100.00
2024-02-18T05:39:48.336Z,100.00
2024-02-18T05:45:00.898Z,100.00
2024-02-18T05:50:12.845Z,100.00
2024-02-18T05:55:24.541Z,100.00
2024-02-18T06:00:30.162Z,100.00
2024-02-18T06:05:35.420Z,100.00
2024-02-18T06:10:43.405Z,100.00
2024-02-18T06:15:52.684Z,100.00
2024-02-18T06:21:00.441Z,100.00
2024-02-18T06:26:09.584Z,100.00
2024-02-18T06:31:20.409Z,100.00
2024-02-18T06:36:26.644Z,100.00
2024-02-18T06:41:38.176Z,100.00
2024-02-18T06:46:47.152Z,100.00
2024-02-18T06:51:53.833Z,100.00
2024-02-18T06:57:02.089Z,100.00
2024-02-18T07:02:13.369Z,100.00
2024-02-18T07:07:26.708Z,100.00
2024-02-18T07:12:48.632Z,100.00
2024-02-18T07:17:53.300Z,100.00
2024-02-18T07:23:00.643Z,100.00
2024-02-18T07:33:28.944Z,100.00
2024-02-18T07:38:34.513Z,100.00
2024-02-18T07:43:52.307Z,100.00
2024-02-18T07:49:03.165Z,100.00
2024-02-18T07:54:09.332Z,100.00
2024-02-18T07:59:21.948Z,100.00
2024-02-18T08:04:31.008Z,100.00
2024-02-18T08:09:38.366Z,100.00
2024-02-18T08:14:45.866Z,100.00
2024-02-18T08:19:54.184Z,100.00
2024-02-18T08:25:04.688Z,100.00
2024-02-18T08:30:11.615Z,100.00
2024-02-18T08:40:45.961Z,100.00
2024-02-18T08:45:56.880Z,100.00
2024-02-18T08:51:17.312Z,100.00
2024-02-18T08:56:25.379Z,100.00
2024-02-18T09:01:33.278Z,97.04
2024-02-18T09:11:55.388Z,94.64
2024-02-18T09:17:06.087Z,93.18
2024-02-18T09:22:14.120Z,89.70
2024-02-18T09:27:21.985Z,89.07
2024-02-18T09:37:49.939Z,87.50
2024-02-18T09:42:57.604Z,85.64
2024-02-18T09:48:06.114Z,84.91
2024-02-18T09:53:15.931Z,84.80
2024-02-18T09:58:21.756Z,84.29
2024-02-18T10:03:29.408Z,83.28
2024-02-18T10:08:53.022Z,83.49
2024-02-18T10:14:10.153Z,81.85
2024-02-18T10:19:20.314Z,83.72
2024-02-18T10:24:27.380Z,81.39
2024-02-18T10:29:37.076Z,82.42
2024-02-18T10:34:43.533Z,81.90
2024-02-18T10:40:02.220Z,83.26
2024-02-18T10:45:11.332Z,83.75
2024-02-18T10:50:28.332Z,86.52
2024-02-18T10:55:43.397Z,89.14
2024-02-18T11:00:55.752Z,91.59
2024-02-18T11:11:34.914Z,92.63
2024-02-18T11:22:09.976Z,93.71
2024-02-18T11:27:25.086Z,95.39
2024-02-18T11:37:51.422Z,94.17
2024-02-18T11:43:00.762Z,94.05
2024-02-18T11:48:08.415Z,94.20
2024-02-18T12:03:46.670Z,88.58
2024-02-18T12:14:23.396Z,84.53
2024-02-18T12:24:52.526Z,81.03
2024-02-18T12:30:00.995Z,82.65
2024-02-18T12:35:15.586Z,82.79
2024-02-18T12:48:17.863Z,82.71
2024-02-18T12:53:29.755Z,82.21
2024-02-18T12:58:41.928Z,81.47
2024-02-18T13:03:58.083Z,81.91
2024-02-18T13:09:05.453Z,82.75
2024-02-18T13:14:18.714Z,93.22
2024-02-18T13:19:27.765Z,95.76
2024-02-18T13:24:39.646Z,94.76
2024-02-18T13:29:46.347Z,94.43
2024-02-18T13:34:59.649Z,93.57
2024-02-18T13:40:07.209Z,93.88
2024-02-18T13:45:23.276Z,94.38
2024-02-18T13:50:44.312Z,94.77
2024-02-18T13:55:55.595Z,93.42
2024-02-18T14:01:02.885Z,93.21
2024-02-18T14:06:17.109Z,92.04
2024-02-18T14:11:23.872Z,92.15
2024-02-18T14:21:55.030Z,87.57
2024-02-18T14:27:29.592Z,89.04
2024-02-18T14:32:41.041Z,88.87
2024-02-18T14:37:51.459Z,89.13
2024-02-18T14:43:02.229Z,87.44
2024-02-18T14:48:09.930Z,87.05
2024-02-18T14:53:21.304Z,87.02
2024-02-18T14:58:37.356Z,85.80
2024-02-18T15:03:44.297Z,83.68
2024-02-18T15:08:55.417Z,84.57
2024-02-18T15:29:57.048Z,81.45
2024-02-18T15:35:02.793Z,80.94
2024-02-18T15:40:17.886Z,81.27
2024-02-18T15:45:31.397Z,80.34
2024-02-18T15:50:37.172Z,81.62
2024-02-18T15:55:54.062Z,81.79
2024-02-18T16:01:19.505Z,82.66
2024-02-18T16:06:42.108Z,82.99
2024-02-18T16:11:50.831Z,82.48
2024-02-18T16:16:58.901Z,83.25
2024-02-18T16:27:37.567Z,84.03
2024-02-18T16:38:03.921Z,83.17
2024-02-18T16:43:18.329Z,84.12
2024-02-18T16:48:41.165Z,84.05
2024-02-18T16:54:07.181Z,84.22
2024-02-18T17:04:51.927Z,83.95
2024-02-18T17:10:08.322Z,83.86
2024-02-18T17:15:17.230Z,84.37
2024-02-18T17:20:24.199Z,84.20
2024-02-18T17:25:33.074Z,84.03
2024-02-18T17:30:46.173Z,84.61
2024-02-18T17:35:58.790Z,85.35
2024-02-18T17:41:12.863Z,85.33
2024-02-18T17:46:33.364Z,84.54
2024-02-18T17:57:01.423Z,84.77
2024-02-18T18:02:12.714Z,84.46
2024-02-18T18:07:35.324Z,84.36
2024-02-18T18:12:43.737Z,84.64
2024-02-18T18:23:18.939Z,84.54
2024-02-18T18:28:34.088Z,84.53
2024-02-18T18:44:09.518Z,84.79
2024-02-18T18:49:19.574Z,84.25
2024-02-18T18:54:30.999Z,84.76
2024-02-18T18:59:37.434Z,84.75
2024-02-18T19:10:14.410Z,84.63
2024-02-18T19:15:25.521Z,84.72
2024-02-18T19:20:42.992Z,83.87
2024-02-18T19:25:52.429Z,84.23
2024-02-18T19:31:07.130Z,84.80
2024-02-18T19:41:56.633Z,84.61
2024-02-18T19:47:13.530Z,84.27
2024-02-18T19:52:22.453Z,84.33
2024-02-18T19:57:31.881Z,84.41
2024-02-18T20:02:44.376Z,84.66
2024-02-18T20:07:52.021Z,84.51
2024-02-18T20:12:58.632Z,84.67
2024-02-18T20:18:05.434Z,84.59
2024-02-18T20:23:27.594Z,84.23
2024-02-18T20:28:39.770Z,84.32
2024-02-18T20:33:48.711Z,84.02
2024-02-18T20:39:02.973Z,84.05
2024-02-18T20:44:14.938Z,83.83
2024-02-18T20:49:27.235Z,83.09
2024-02-18T20:59:59.197Z,80.71
2024-02-18T21:05:05.268Z,80.01
2024-02-18T21:10:25.212Z,81.05
2024-02-18T21:15:45.554Z,80.78
2024-02-18T21:20:53.634Z,80.99
2024-02-18T21:26:01.226Z,80.72
2024-02-18T21:31:09.848Z,81.26
2024-02-18T21:36:23.027Z,81.48
2024-02-18T21:41:34.811Z,80.90
2024-02-18T21:46:48.878Z,81.11
2024-02-18T21:51:58.755Z,81.49
2024-02-18T21:57:08.644Z,81.66
2024-02-18T22:02:14.911Z,81.84
2024-02-18T22:07:22.991Z,81.87
2024-02-18T22:12:37.782Z,82.01
2024-02-18T22:17:47.424Z,81.89
2024-02-18T22:22:52.624Z,82.42
2024-02-18T22:28:00.684Z,82.46
2024-02-18T22:33:10.753Z,81.66
2024-02-18T22:38:15.789Z,82.32
2024-02-18T22:43:24.239Z,82.30
2024-02-18T22:48:31.865Z,82.08
2024-02-18T22:53:45.505Z,82.22
2024-02-18T22:58:57.986Z,81.88
2024-02-18T23:04:04.781Z,81.91
2024-02-18T23:09:11.199Z,82.10
2024-02-18T23:14:19.362Z,81.96
2024-02-18T23:19:30.992Z,82.50
2024-02-18T23:24:43.131Z,82.11
2024-02-18T23:30:06.963Z,82.17
2024-02-18T23:35:52.730Z,82.14
2024-02-18T23:41:09.560Z,82.46
2024-02-18T23:46:28.152Z,82.29
2024-02-18T23:51:56.131Z,82.43
2024-02-18T23:57:01.218Z,82.31
